M/y Arion — 9HB2161 — position and weather

sailwx.info

Track history (hours):
 
Tides and Currents Weather Stations Pressure Air Temp Water Temp Dewpoint Dewpoint Depression Visibility Wind Speed Wind Dir Waves Ship Positions

M/y Arion

Last reported at 2016-May-26 16:33 UTC. Time now 2016-May-27 00:20 UTC.
Position N 43°44' E 007°25'.

Length 37 m; draft 2.2 m.

Type: Other ship. MMSI: 215479000.

Date/timePositionNaut miles runAvg speedWind from/ knotsBaromVisibWave heightAir tempDewpointWater temp
2016-May-26 16:33N 43°44' E 007°25'1 0.8
2016-May-26 15:30N 43°44' E 007°26'0 0.1
2016-May-26 14:22N 43°45' E 007°26'910.5
2016-May-26 13:34N 43°38' E 007°18'10 9.8
2016-May-26 12:33N 43°33' E 007°07'0 0.0
2016-May-26 11:33N 43°33' E 007°07'4 4.1
2016-May-26 10:33N 43°30' E 007°03'3 2.8
2016-May-26 09:33N 43°32' E 007°02'0 0.0
2016-May-26 08:33N 43°32' E 007°02'0 0.0
2016-May-26 07:33N 43°32' E 007°02'0 0.0
2016-May-26 06:33N 43°32' E 007°02'0 0.0
2016-May-26 05:33N 43°32' E 007°02'0 0.0
2016-May-26 04:33N 43°32' E 007°02'0 0.0
2016-May-26 03:33N 43°32' E 007°02'0 0.0
2016-May-26 02:33N 43°32' E 007°02'0 0.0
2016-May-26 01:33N 43°32' E 007°02'0 0.0
2016-May-26 00:33N 43°32' E 007°02'0 0.0
2016-May-25 23:33N 43°32' E 007°02'0 0.0
2016-May-25 22:33N 43°32' E 007°02'0 0.0
2016-May-25 21:33N 43°32' E 007°02'0 0.0
2016-May-25 20:33N 43°32' E 007°02'0 0.0
2016-May-25 19:33N 43°32' E 007°02'0 0.0
2016-May-25 18:33N 43°32' E 007°02'0 0.0
2016-May-25 17:33N 43°32' E 007°02'0 0.0
2016-May-25 16:34N 43°32' E 007°02'0 0.0
2016-May-25 15:33N 43°32' E 007°02'0 0.0
2016-May-25 14:33N 43°32' E 007°02'0 0.0
2016-May-25 13:33N 43°32' E 007°02'0 0.1
2016-May-25 12:33N 43°32' E 007°02'  
2016-May-18 15:32N 43°33' E 007°02'0 0.0
2016-May-18 14:33N 43°33' E 007°02'0 0.0
2016-May-18 13:33N 43°33' E 007°02'0 0.0
2016-May-18 12:32N 43°33' E 007°02'0 0.0
2016-May-18 11:33N 43°33' E 007°02'0 0.0
2016-May-18 10:33N 43°33' E 007°02'1 0.6
2016-May-18 09:33N 43°32' E 007°02'5 5.5
2016-May-18 08:33N 43°35' E 007°08'  
Track history (hours):
 
Tides and Currents Weather Stations Pressure Air Temp Water Temp Dewpoint Dewpoint Depression Visibility Wind Speed Wind Dir Waves Ship Positions

M/y Arion

Last reported at 2016-May-26 16:33 UTC. Time now 2016-May-27 00:20 UTC.
Position N 43°44' E 007°25'.

Length 37 m; draft 2.2 m.

Type: Other ship. MMSI: 215479000.

Date/timePositionNaut miles runAvg speedWind from/ knotsBaromVisibWave heightAir tempDewpointWater temp
2016-May-26 16:33N 43°44' E 007°25'1 0.8
2016-May-26 15:30N 43°44' E 007°26'0 0.1
2016-May-26 14:22N 43°45' E 007°26'910.5
2016-May-26 13:34N 43°38' E 007°18'10 9.8
2016-May-26 12:33N 43°33' E 007°07'0 0.0
2016-May-26 11:33N 43°33' E 007°07'4 4.1
2016-May-26 10:33N 43°30' E 007°03'3 2.8
2016-May-26 09:33N 43°32' E 007°02'0 0.0
2016-May-26 08:33N 43°32' E 007°02'0 0.0
2016-May-26 07:33N 43°32' E 007°02'0 0.0
2016-May-26 06:33N 43°32' E 007°02'0 0.0
2016-May-26 05:33N 43°32' E 007°02'0 0.0
2016-May-26 04:33N 43°32' E 007°02'0 0.0
2016-May-26 03:33N 43°32' E 007°02'0 0.0
2016-May-26 02:33N 43°32' E 007°02'0 0.0
2016-May-26 01:33N 43°32' E 007°02'0 0.0
2016-May-26 00:33N 43°32' E 007°02'0 0.0
2016-May-25 23:33N 43°32' E 007°02'0 0.0
2016-May-25 22:33N 43°32' E 007°02'0 0.0
2016-May-25 21:33N 43°32' E 007°02'0 0.0
2016-May-25 20:33N 43°32' E 007°02'0 0.0
2016-May-25 19:33N 43°32' E 007°02'0 0.0
2016-May-25 18:33N 43°32' E 007°02'0 0.0
2016-May-25 17:33N 43°32' E 007°02'0 0.0
2016-May-25 16:34N 43°32' E 007°02'0 0.0
2016-May-25 15:33N 43°32' E 007°02'0 0.0
2016-May-25 14:33N 43°32' E 007°02'0 0.0
2016-May-25 13:33N 43°32' E 007°02'0 0.1
2016-May-25 12:33N 43°32' E 007°02'  
2016-May-18 15:32N 43°33' E 007°02'0 0.0
2016-May-18 14:33N 43°33' E 007°02'0 0.0
2016-May-18 13:33N 43°33' E 007°02'0 0.0
2016-May-18 12:32N 43°33' E 007°02'0 0.0
2016-May-18 11:33N 43°33' E 007°02'0 0.0
2016-May-18 10:33N 43°33' E 007°02'1 0.6
2016-May-18 09:33N 43°32' E 007°02'5 5.5
2016-May-18 08:33N 43°35' E 007°08'  

Dump ship's entire track history